Time;durP1;ratioP1;P1;durP2;ratioP2;P2;SDS_P1;SDS_P2;PMS_P1;PMS_P2;Temp;Humidity;BMP_temperature;BMP_pressure;BME280_temperature;BME280_humidity;BME280_pressure;Samples;Min_cycle;Max_cycle;Signal;HPM_P1;HPM_P2
2022/06/18 00:01:19;;;;;;;36.15;5.65;;;26.50;64.70;;;;;;4842856;29;20109;-82
2022/06/18 00:03:44;;;;;;;31.63;5.57;;;26.50;65.90;;;;;;4842074;29;20122;-82
2022/06/18 00:06:11;;;;;;;25.65;5.10;;;26.50;65.00;;;;;;4842811;29;20036;-83
2022/06/18 00:08:37;;;;;;;19.98;5.28;;;26.50;66.90;;;;;;4842742;29;20033;-82
2022/06/18 00:13:49;;;;;;;27.25;4.65;;;26.40;64.70;;;;;;4842436;29;20048;-83
2022/06/18 00:16:19;;;;;;;31.13;4.95;;;26.40;63.90;;;;;;4842403;29;20037;-82
2022/06/18 00:18:46;;;;;;;32.00;4.35;;;26.30;64.30;;;;;;4843795;29;20117;-82
2022/06/18 00:21:20;;;;;;;23.35;5.05;;;26.40;65.90;;;;;;4842558;29;20101;-82
2022/06/18 00:23:45;;;;;;;22.10;4.45;;;26.30;66.20;;;;;;4842339;29;20026;-82
2022/06/18 00:26:11;;;;;;;21.02;5.22;;;26.30;66.00;;;;;;4842751;29;20121;-82
2022/06/18 00:28:37;;;;;;;26.63;5.75;;;26.20;65.10;;;;;;4841749;29;20081;-83
2022/06/18 00:31:03;;;;;;;26.60;5.28;;;26.10;63.90;;;;;;4842174;29;20034;-82
2022/06/18 00:33:29;;;;;;;20.95;4.47;;;26.10;66.70;;;;;;4841929;29;20036;-82
2022/06/18 00:36:00;;;;;;;23.30;5.18;;;26.10;67.00;;;;;;4842504;29;20090;-82
2022/06/18 00:38:35;;;;;;;30.42;5.10;;;26.10;67.30;;;;;;4844103;29;20470;-82
2022/06/18 00:41:03;;;;;;;28.73;4.72;;;25.80;63.20;;;;;;4842211;29;20022;-82
2022/06/18 00:43:38;;;;;;;31.00;5.32;;;25.80;64.10;;;;;;4841918;29;20113;-82
2022/06/18 00:46:22;;;;;;;30.20;5.55;;;25.60;65.80;;;;;;4842129;29;20026;-82
2022/06/18 00:49:20;;;;;;;28.20;5.50;;;25.50;66.50;;;;;;4841727;29;20057;-82
2022/06/18 00:52:04;;;;;;;32.17;5.72;;;25.40;67.00;;;;;;4841594;29;20030;-82
2022/06/18 00:54:40;;;;;;;27.98;5.90;;;25.40;66.30;;;;;;4842252;29;20034;-82
2022/06/18 00:57:28;;;;;;;30.38;6.00;;;25.50;66.10;;;;;;4841898;29;20475;-83
2022/06/18 01:00:11;;;;;;;38.85;6.68;;;25.50;66.00;;;;;;4841181;29;20025;-83
2022/06/18 01:02:41;;;;;;;41.30;6.45;;;25.60;66.00;;;;;;4840393;29;20456;-82
2022/06/18 01:05:38;;;;;;;27.88;5.60;;;25.60;65.60;;;;;;4841533;29;20030;-82
2022/06/18 01:08:14;;;;;;;36.22;6.15;;;25.60;65.80;;;;;;4841039;29;20070;-82
2022/06/18 01:10:43;;;;;;;28.45;5.40;;;25.50;65.80;;;;;;4841250;29;20497;-82
2022/06/18 01:13:13;;;;;;;24.88;5.82;;;25.40;65.90;;;;;;4841812;29;20447;-82
2022/06/18 01:15:41;;;;;;;29.70;5.85;;;25.50;65.80;;;;;;4839700;29;20048;-82
2022/06/18 01:18:07;;;;;;;27.73;5.80;;;25.50;65.90;;;;;;4839551;29;20368;-82
2022/06/18 01:20:42;;;;;;;26.15;6.10;;;25.50;66.30;;;;;;4841771;29;20034;-82
2022/06/18 01:23:41;;;;;;;22.98;5.93;;;25.40;66.70;;;;;;4841510;29;20394;-82
2022/06/18 01:26:08;;;;;;;30.35;6.10;;;25.40;66.80;;;;;;4840651;29;20415;-82
2022/06/18 01:28:34;;;;;;;19.10;5.07;;;25.40;66.90;;;;;;4841238;29;20586;-82
2022/06/18 01:31:00;;;;;;;29.48;5.78;;;25.60;66.70;;;;;;4840946;29;20038;-82
2022/06/18 01:33:26;;;;;;;26.75;5.45;;;25.60;66.20;;;;;;4842134;29;20513;-82
2022/06/18 01:35:54;;;;;;;21.75;5.97;;;25.60;66.50;;;;;;4855496;29;20034;-82
2022/06/18 01:38:20;;;;;;;21.27;5.70;;;25.60;66.30;;;;;;4841292;29;20502;-82
2022/06/18 01:44:06;;;;;;;28.42;6.10;;;25.60;66.80;;;;;;4841044;29;20045;-82
2022/06/18 01:46:34;;;;;;;22.50;4.82;;;25.50;66.80;;;;;;4841112;29;20034;-82
2022/06/18 01:49:01;;;;;;;24.85;5.00;;;25.60;66.90;;;;;;4841035;29;20049;-82
2022/06/18 01:51:35;;;;;;;25.17;4.30;;;25.40;66.80;;;;;;4841092;29;20030;-82
2022/06/18 01:54:15;;;;;;;17.67;4.85;;;25.30;67.10;;;;;;4842546;29;20413;-82
2022/06/18 01:56:45;;;;;;;17.80;5.15;;;25.20;67.30;;;;;;4841286;29;20066;-82
2022/06/18 01:59:17;;;;;;;16.67;4.40;;;25.30;67.00;;;;;;4840736;29;20469;-82
2022/06/18 02:01:45;;;;;;;25.17;4.70;;;25.20;67.10;;;;;;4840155;29;20030;-82
2022/06/18 02:04:13;;;;;;;18.95;4.28;;;25.20;67.00;;;;;;4840561;29;20116;-82
2022/06/18 02:06:39;;;;;;;19.35;4.05;;;25.20;66.90;;;;;;4837530;29;20030;-82
2022/06/18 02:09:26;;;;;;;17.25;4.13;;;25.10;67.10;;;;;;4823228;29;20031;-82
2022/06/18 02:11:55;;;;;;;18.05;4.30;;;25.10;67.10;;;;;;4825848;29;20038;-82
2022/06/18 02:14:23;;;;;;;11.35;3.70;;;25.10;67.20;;;;;;4841884;29;20378;-82
2022/06/18 02:16:51;;;;;;;17.40;3.80;;;25.00;67.50;;;;;;4844536;29;20030;-82
2022/06/18 02:19:18;;;;;;;13.13;3.67;;;25.20;67.50;;;;;;4844737;29;20513;-82
2022/06/18 02:21:48;;;;;;;18.55;3.53;;;25.10;67.60;;;;;;4844341;29;20030;-82
2022/06/18 02:24:15;;;;;;;16.15;4.20;;;25.10;67.90;;;;;;4844584;29;20019;-82
2022/06/18 02:26:43;;;;;;;16.63;3.70;;;25.10;68.00;;;;;;4848698;29;20128;-82
2022/06/18 02:29:23;;;;;;;9.93;3.47;;;25.00;68.30;;;;;;4843271;29;20129;-82
2022/06/18 02:31:50;;;;;;;17.30;3.50;;;25.00;68.30;;;;;;4844353;29;20030;-82
2022/06/18 02:34:27;;;;;;;15.20;3.22;;;24.90;68.30;;;;;;4844469;29;20062;-82
2022/06/18 02:36:53;;;;;;;11.48;3.20;;;24.90;68.90;;;;;;4844210;29;20486;-82
2022/06/18 02:39:25;;;;;;;16.38;4.15;;;24.80;69.20;;;;;;4844458;29;20098;-82
2022/06/18 02:41:54;;;;;;;;;;;24.90;69.20;;;;;;4844277;29;20030;-82
2022/06/18 02:44:21;;;;;;;9.02;3.03;;;24.80;69.20;;;;;;4843645;29;20416;-82
2022/06/18 02:46:47;;;;;;;11.55;3.85;;;24.80;69.30;;;;;;4844276;29;20118;-82
2022/06/18 02:49:13;;;;;;;19.23;4.57;;;24.80;69.30;;;;;;4844344;29;20113;-82
2022/06/18 02:51:42;;;;;;;13.35;3.30;;;24.80;69.50;;;;;;4844089;29;20439;-82
2022/06/18 02:54:10;;;;;;;13.60;4.25;;;24.90;69.30;;;;;;4843552;29;20490;-82
2022/06/18 02:56:36;;;;;;;12.90;3.85;;;24.80;69.70;;;;;;4844641;29;20056;-82
2022/06/18 02:59:05;;;;;;;14.32;3.42;;;24.60;70.00;;;;;;4862251;29;20064;-82
2022/06/18 03:01:32;;;;;;;11.52;2.80;;;24.70;69.40;;;;;;4862397;29;20018;-82
2022/06/18 03:04:00;;;;;;;8.90;3.28;;;24.80;68.70;;;;;;4862138;29;20036;-82
2022/06/18 03:06:28;;;;;;;14.52;3.47;;;24.80;68.70;;;;;;4863181;29;20089;-82
2022/06/18 03:08:55;;;;;;;11.30;3.33;;;24.90;68.60;;;;;;4861982;29;20036;-82
2022/06/18 03:14:08;;;;;;;11.10;2.92;;;24.80;68.50;;;;;;4842940;29;20045;-82
2022/06/18 03:16:34;;;;;;;13.30;3.17;;;24.70;68.80;;;;;;4843622;29;20142;-82
2022/06/18 03:19:02;;;;;;;9.35;3.28;;;24.70;69.30;;;;;;4843361;29;20105;-82
2022/06/18 03:21:33;;;;;;;12.13;3.63;;;24.60;69.30;;;;;;4827196;29;20387;-82
2022/06/18 03:24:00;;;;;;;11.13;3.55;;;24.60;69.60;;;;;;4825065;29;20559;-82
2022/06/18 03:26:26;;;;;;;7.78;2.90;;;24.50;69.50;;;;;;4861666;29;20033;-82
2022/06/18 03:28:52;;;;;;;11.88;3.58;;;24.50;69.70;;;;;;4861514;29;20068;-82
2022/06/18 03:31:17;;;;;;;15.25;3.63;;;24.40;70.20;;;;;;4861745;29;20112;-82
2022/06/18 03:33:43;;;;;;;8.65;3.53;;;24.50;69.90;;;;;;4861889;29;20529;-82
2022/06/18 03:36:11;;;;;;;12.48;3.88;;;24.50;69.80;;;;;;4861804;29;20040;-82
2022/06/18 03:38:37;;;;;;;9.80;3.45;;;24.50;70.00;;;;;;4861840;29;20026;-82
2022/06/18 03:41:03;;;;;;;17.73;3.42;;;24.60;70.10;;;;;;4860932;29;20029;-82
2022/06/18 03:43:30;;;;;;;14.18;3.58;;;24.50;70.10;;;;;;4847486;29;20037;-83
2022/06/18 03:46:08;;;;;;;16.98;4.05;;;24.50;70.70;;;;;;4841966;29;20508;-82
2022/06/18 03:48:59;;;;;;;10.93;3.85;;;24.40;71.00;;;;;;4825149;29;20159;-82
2022/06/18 03:51:25;;;;;;;12.00;3.83;;;24.40;71.60;;;;;;4852698;29;20033;-82
2022/06/18 03:53:51;;;;;;;11.57;4.28;;;24.20;72.30;;;;;;4842629;29;20112;-82
2022/06/18 03:56:21;;;;;;;11.75;3.78;;;24.10;72.90;;;;;;4842667;29;20117;-82
2022/06/18 03:58:48;;;;;;;12.77;3.83;;;24.10;73.10;;;;;;4843020;29;20034;-82
2022/06/18 04:01:25;;;;;;;16.58;3.47;;;24.10;73.20;;;;;;4843705;29;20055;-82
2022/06/18 04:03:51;;;;;;;16.95;3.63;;;24.10;73.40;;;;;;4842891;29;20030;-82
2022/06/18 04:06:16;;;;;;;8.85;3.38;;;24.00;74.10;;;;;;4842723;29;20030;-82
2022/06/18 04:08:44;;;;;;;9.77;3.13;;;23.90;74.40;;;;;;4842403;29;20170;-82
2022/06/18 04:11:10;;;;;;;13.48;3.50;;;24.00;74.60;;;;;;4842732;29;20034;-82
2022/06/18 04:13:36;;;;;;;13.18;3.53;;;23.90;74.90;;;;;;4842360;29;20030;-82
2022/06/18 04:16:02;;;;;;;10.90;3.63;;;23.80;75.30;;;;;;4835820;29;20023;-82
2022/06/18 04:18:28;;;;;;;13.30;3.47;;;23.90;75.30;;;;;;4825323;29;20037;-82
2022/06/18 04:20:54;;;;;;;15.70;3.47;;;23.90;75.30;;;;;;4841713;29;20030;-82
2022/06/18 04:23:20;;;;;;;9.80;3.50;;;23.90;74.70;;;;;;4842326;29;20026;-82
2022/06/18 04:25:46;;;;;;;12.30;3.95;;;23.90;75.20;;;;;;4842483;29;20089;-82
2022/06/18 04:28:14;;;;;;;17.65;4.53;;;23.80;75.60;;;;;;4841549;29;20105;-82
2022/06/18 04:30:39;;;;;;;17.27;3.40;;;23.80;75.40;;;;;;4841895;29;20041;-82
2022/06/18 04:33:05;;;;;;;10.93;3.80;;;23.90;75.10;;;;;;4842200;29;20398;-82
2022/06/18 04:35:31;;;;;;;13.32;3.90;;;23.80;74.90;;;;;;4842478;29;20054;-82
2022/06/18 04:37:57;;;;;;;16.30;4.13;;;23.80;75.30;;;;;;4856448;29;20530;-82
2022/06/18 04:40:31;;;;;;;26.08;4.38;;;23.90;75.10;;;;;;4860129;29;20029;-82
2022/06/18 04:43:01;;;;;;;11.48;3.75;;;23.90;75.70;;;;;;4860473;29;20037;-82
2022/06/18 04:45:28;;;;;;;14.35;3.90;;;23.90;75.10;;;;;;4860911;29;20044;-82
2022/06/18 04:47:54;;;;;;;16.13;4.72;;;23.90;75.10;;;;;;4859907;29;20093;-82
2022/06/18 04:50:24;;;;;;;14.77;3.75;;;23.90;75.20;;;;;;4860305;29;20036;-82
2022/06/18 04:52:51;;;;;;;16.30;3.40;;;23.90;75.00;;;;;;4860134;29;20052;-82
2022/06/18 04:55:17;;;;;;;16.02;4.22;;;23.70;75.30;;;;;;4860269;29;20036;-82
2022/06/18 04:57:42;;;;;;;11.98;3.63;;;23.70;75.70;;;;;;4847018;29;20034;-82
2022/06/18 05:00:09;;;;;;;11.98;3.60;;;23.80;75.30;;;;;;4841868;29;20117;-82
2022/06/18 05:02:35;;;;;;;13.60;4.00;;;23.90;74.90;;;;;;4842010;29;20501;-82
2022/06/18 05:05:04;;;;;;;10.23;3.83;;;24.00;74.40;;;;;;4843801;29;20053;-81
2022/06/18 05:07:30;;;;;;;7.55;3.20;;;23.90;74.60;;;;;;4849559;29;20522;-82
2022/06/18 05:09:56;;;;;;;12.40;3.50;;;24.00;74.20;;;;;;4841300;29;20026;-82
2022/06/18 05:12:21;;;;;;;14.02;3.30;;;24.00;74.00;;;;;;4840669;29;20041;-82
2022/06/18 05:14:47;;;;;;;11.38;3.92;;;24.20;73.50;;;;;;4841294;29;20030;-82
2022/06/18 05:17:18;;;;;;;13.25;3.95;;;24.20;73.40;;;;;;4840578;29;20506;-82
2022/06/18 05:19:44;;;;;;;9.60;3.40;;;24.20;73.40;;;;;;4841375;29;20030;-82
2022/06/18 05:22:10;;;;;;;14.63;3.90;;;24.20;72.80;;;;;;4840837;29;20037;-82
2022/06/18 05:24:36;;;;;;;10.20;3.42;;;24.30;72.30;;;;;;4841620;29;20089;-81
2022/06/18 05:27:03;;;;;;;14.15;3.83;;;24.30;72.00;;;;;;4841593;29;20431;-82
2022/06/18 05:29:29;;;;;;;14.77;3.63;;;24.40;71.80;;;;;;4841552;29;20046;-82
2022/06/18 05:31:55;;;;;;;11.48;3.53;;;24.40;72.10;;;;;;4841957;29;20097;-82
2022/06/18 05:34:21;;;;;;;12.30;3.97;;;24.40;71.80;;;;;;4841564;29;20110;-82
2022/06/18 05:36:47;;;;;;;8.43;2.95;;;24.40;72.30;;;;;;4841568;29;20055;-81
2022/06/18 05:39:17;;;;;;;13.00;3.55;;;24.40;72.10;;;;;;4837007;29;20543;-82
2022/06/18 05:41:42;;;;;;;10.20;4.03;;;24.50;71.40;;;;;;4823902;29;20031;-82
2022/06/18 05:44:08;;;;;;;12.68;3.30;;;24.50;71.40;;;;;;4823954;29;20030;-82
2022/06/18 05:46:34;;;;;;;15.77;3.70;;;24.60;71.30;;;;;;4826515;29;20074;-82
2022/06/18 05:49:00;;;;;;;12.82;3.58;;;24.70;71.30;;;;;;4841860;29;20478;-82
2022/06/18 05:51:26;;;;;;;10.55;3.75;;;24.70;71.10;;;;;;4841336;29;20034;-82
2022/06/18 05:53:52;;;;;;;17.58;3.78;;;24.70;71.30;;;;;;4841897;29;20069;-82
2022/06/18 05:56:17;;;;;;;11.00;3.63;;;24.70;70.90;;;;;;4841735;29;20398;-82
2022/06/18 05:58:43;;;;;;;12.48;4.00;;;24.70;70.80;;;;;;4841957;29;20030;-82
2022/06/18 06:01:09;;;;;;;12.88;3.30;;;24.70;71.10;;;;;;4841760;29;20078;-82
2022/06/18 06:03:35;;;;;;;14.98;3.30;;;24.80;70.80;;;;;;4841854;29;20395;-82
2022/06/18 06:06:01;;;;;;;11.65;3.80;;;24.90;70.60;;;;;;4841538;29;20097;-82
2022/06/18 06:08:27;;;;;;;7.80;3.38;;;24.90;70.50;;;;;;4841298;29;20070;-81
2022/06/18 06:13:37;;;;;;;10.98;3.90;;;24.90;70.20;;;;;;4841335;29;20072;-82
2022/06/18 06:16:03;;;;;;;10.50;3.10;;;25.00;70.00;;;;;;4841403;29;20061;-82
2022/06/18 06:18:30;;;;;;;12.55;3.95;;;25.10;69.40;;;;;;4841159;29;20406;-82
2022/06/18 06:20:57;;;;;;;11.07;4.07;;;25.20;68.90;;;;;;4835921;29;20751;-82
2022/06/18 06:23:23;;;;;;;10.10;4.32;;;25.30;68.80;;;;;;4823429;29;20030;-82
2022/06/18 06:25:50;;;;;;;12.23;3.50;;;25.40;68.30;;;;;;4835065;29;20147;-82
2022/06/18 06:28:22;;;;;;;10.98;3.60;;;25.40;68.00;;;;;;4841281;29;20046;-82
2022/06/18 06:30:48;;;;;;;13.52;3.15;;;25.50;67.60;;;;;;4841627;29;20049;-82
2022/06/18 06:33:15;;;;;;;12.73;3.22;;;25.60;67.60;;;;;;4840668;29;20486;-82
2022/06/18 06:35:42;;;;;;;12.35;3.63;;;25.70;67.60;;;;;;4852368;29;20394;-82
2022/06/18 06:38:09;;;;;;;17.05;4.35;;;25.80;67.10;;;;;;4859586;29;20476;-82
2022/06/18 06:40:35;;;;;;;10.27;3.53;;;25.90;66.40;;;;;;4845296;29;20073;-83
2022/06/18 06:43:02;;;;;;;7.18;3.03;;;26.00;66.00;;;;;;4840245;29;20048;-81
2022/06/18 06:45:31;;;;;;;15.98;3.95;;;26.00;65.60;;;;;;4839237;29;20033;-83
2022/06/18 06:47:57;;;;;;;16.48;3.80;;;26.10;65.20;;;;;;4841194;29;20041;-80
2022/06/18 06:50:25;;;;;;;12.38;3.50;;;26.20;65.60;;;;;;4848294;29;20495;-80
2022/06/18 06:52:52;;;;;;;11.32;3.60;;;26.20;64.60;;;;;;4841592;29;20041;-81
2022/06/18 06:58:16;;;;;;;15.07;3.92;;;26.50;65.50;;;;;;4842769;29;20041;-77
2022/06/18 07:00:47;;;;;;;9.90;3.10;;;26.60;65.00;;;;;;4843845;29;20018;-77
2022/06/18 07:03:18;;;;;;;13.63;3.47;;;26.60;64.00;;;;;;4843709;29;20501;-78
2022/06/18 07:05:44;;;;;;;15.27;3.33;;;26.70;63.30;;;;;;4842300;29;20104;-78
2022/06/18 07:08:10;;;;;;;17.00;3.70;;;26.80;63.30;;;;;;4842796;29;20049;-79
2022/06/18 07:10:36;;;;;;;7.63;3.00;;;26.90;62.60;;;;;;4842270;29;20030;-78
2022/06/18 07:13:02;;;;;;;10.23;3.15;;;27.00;62.30;;;;;;4842535;29;20030;-81
2022/06/18 07:15:28;;;;;;;12.52;3.63;;;27.10;62.20;;;;;;4841485;29;20041;-79
2022/06/18 07:17:54;;;;;;;13.25;3.45;;;27.10;61.60;;;;;;4843301;29;20467;-80
2022/06/18 07:20:22;;;;;;;11.30;3.38;;;27.20;61.00;;;;;;4842421;29;20073;-80
2022/06/18 07:22:48;;;;;;;14.00;2.83;;;27.30;61.20;;;;;;4835013;29;20044;-79
2022/06/18 07:25:15;;;;;;;10.27;3.50;;;27.40;61.20;;;;;;4843882;29;20475;-80
2022/06/18 07:27:42;;;;;;;7.47;2.72;;;27.40;60.30;;;;;;4842825;29;20051;-79
2022/06/18 07:30:08;;;;;;;15.35;3.53;;;27.50;60.00;;;;;;4843289;29;20030;-79
2022/06/18 07:32:36;;;;;;;17.25;3.08;;;27.50;59.60;;;;;;4842909;29;20060;-79
2022/06/18 07:35:03;;;;;;;8.73;3.30;;;27.60;59.60;;;;;;4842813;29;20024;-79
2022/06/18 07:37:29;;;;;;;11.35;3.72;;;27.70;59.00;;;;;;4841987;29;20399;-79
2022/06/18 07:39:54;;;;;;;10.32;3.00;;;27.70;58.60;;;;;;4843468;29;20034;-79
2022/06/18 07:42:23;;;;;;;13.20;2.60;;;27.80;59.00;;;;;;4843313;29;20029;-79
2022/06/18 07:44:49;;;;;;;8.65;2.85;;;28.00;57.80;;;;;;4842805;29;20030;-78
2022/06/18 07:47:17;;;;;;;10.77;2.97;;;28.10;57.40;;;;;;4843122;29;20030;-79
2022/06/18 07:49:45;;;;;;;16.48;3.13;;;28.10;57.10;;;;;;4843149;29;20030;-79
2022/06/18 07:52:13;;;;;;;10.25;2.40;;;28.30;56.90;;;;;;4842794;29;20159;-76
2022/06/18 07:54:39;;;;;;;8.65;2.58;;;28.40;56.40;;;;;;4842546;29;20025;-79
2022/06/18 07:57:05;;;;;;;12.63;3.42;;;28.50;56.10;;;;;;4843040;29;20117;-79
2022/06/18 07:59:32;;;;;;;12.00;3.00;;;28.60;54.80;;;;;;4843150;29;20500;-79
2022/06/18 08:01:58;;;;;;;14.90;2.90;;;28.70;54.50;;;;;;4842033;29;20085;-79
2022/06/18 08:04:24;;;;;;;10.20;3.03;;;28.90;54.40;;;;;;4843025;29;20026;-79
2022/06/18 08:06:49;;;;;;;10.77;2.63;;;29.00;53.20;;;;;;4842991;29;20049;-78
2022/06/18 08:09:15;;;;;;;8.43;2.72;;;29.10;52.70;;;;;;4842045;29;20038;-78
2022/06/18 08:11:42;;;;;;;10.25;2.80;;;29.10;53.30;;;;;;4842374;29;20066;-78
2022/06/18 08:14:08;;;;;;;13.95;2.63;;;29.10;52.30;;;;;;4841298;29;20057;-78
2022/06/18 08:16:34;;;;;;;8.40;2.65;;;29.40;52.10;;;;;;4838427;29;20038;-79
2022/06/18 08:19:00;;;;;;;11.27;2.92;;;29.60;51.70;;;;;;4840701;29;20025;-78
2022/06/18 08:21:39;;;;;;;11.20;2.42;;;29.70;51.40;;;;;;4842888;29;20073;-79
2022/06/18 08:24:09;;;;;;;10.80;2.65;;;29.70;50.60;;;;;;4827571;29;20030;-80
2022/06/18 08:26:37;;;;;;;13.40;3.08;;;29.90;50.70;;;;;;4825003;29;20046;-79
2022/06/18 08:29:05;;;;;;;12.90;3.00;;;30.00;49.00;;;;;;4836628;29;20089;-79
2022/06/18 08:31:31;;;;;;;12.85;2.80;;;30.10;48.90;;;;;;4842687;29;20535;-79
2022/06/18 08:33:57;;;;;;;18.42;2.83;;;30.20;48.50;;;;;;4830016;29;20030;-79
2022/06/18 08:36:23;;;;;;;10.00;2.75;;;30.30;48.40;;;;;;4828329;29;20507;-79
2022/06/18 08:38:50;;;;;;;15.25;2.95;;;30.40;48.30;;;;;;4831467;29;20101;-79
2022/06/18 08:41:18;;;;;;;15.15;3.33;;;30.60;49.20;;;;;;4829453;29;20034;-79
2022/06/18 08:44:23;;;;;;;10.95;3.13;;;30.60;49.00;;;;;;4824770;29;20559;-78
2022/06/18 08:47:16;;;;;;;8.13;2.70;;;30.70;49.60;;;;;;4828130;29;20034;-77
2022/06/18 08:49:57;;;;;;;8.02;2.67;;;30.80;49.10;;;;;;4824843;29;20030;-79
2022/06/18 08:53:17;;;;;;;8.43;3.00;;;30.80;49.20;;;;;;4825014;29;20037;-78
2022/06/18 08:56:04;;;;;;;7.50;2.72;;;30.90;48.90;;;;;;4822314;29;20035;-78
2022/06/18 08:59:17;;;;;;;19.30;2.83;;;31.10;49.30;;;;;;4821921;29;20103;-79
2022/06/18 09:01:49;;;;;;;13.80;2.92;;;31.20;48.80;;;;;;4767807;30;20047;-79
2022/06/18 09:04:35;;;;;;;11.63;2.92;;;31.40;48.50;;;;;;4782185;30;20060;-79
2022/06/18 09:07:35;;;;;;;11.35;2.60;;;31.40;48.60;;;;;;4777133;30;20429;-78
2022/06/18 09:10:27;;;;;;;11.85;2.83;;;31.50;48.30;;;;;;4768128;30;20051;-79
2022/06/18 09:13:06;;;;;;;11.57;3.20;;;31.80;47.40;;;;;;4767196;30;20435;-79
2022/06/18 09:15:40;;;;;;;14.63;2.50;;;31.90;47.40;;;;;;4767600;30;20554;-79
2022/06/18 09:18:34;;;;;;;14.57;2.92;;;32.10;46.90;;;;;;4768740;30;20036;-79
2022/06/18 09:21:04;;;;;;;10.07;2.22;;;31.90;47.00;;;;;;4784042;29;20043;-79
2022/06/18 09:23:33;;;;;;;13.48;3.15;;;31.80;47.70;;;;;;4777323;30;20507;-79
2022/06/18 09:26:00;;;;;;;13.52;2.50;;;32.20;46.60;;;;;;4767539;30;20043;-79
2022/06/18 09:28:31;;;;;;;10.98;2.63;;;32.20;45.80;;;;;;4763124;30;20072;-79
2022/06/18 09:31:03;;;;;;;;;;;32.20;45.50;;;;;;4731835;30;20103;-79
2022/06/18 09:33:36;;;;;;;10.68;2.53;;;32.20;45.90;;;;;;4732427;30;19946;-79
2022/06/18 09:36:35;;;;;;;10.27;2.63;;;32.50;45.90;;;;;;4735826;30;20518;-79
2022/06/18 09:39:08;;;;;;;14.88;3.55;;;32.70;45.80;;;;;;4763631;30;20495;-79
2022/06/18 09:41:40;;;;;;;12.05;2.58;;;32.60;44.60;;;;;;4767574;30;20035;-79
2022/06/18 09:44:24;;;;;;;10.27;2.92;;;32.50;44.90;;;;;;4811276;29;20442;-79
2022/06/18 09:47:06;;;;;;;19.88;3.00;;;32.30;44.90;;;;;;4842143;29;20079;-79
2022/06/18 09:49:32;;;;;;;9.05;2.90;;;32.60;45.10;;;;;;4842145;29;20371;-79
2022/06/18 09:52:23;;;;;;;12.43;2.95;;;32.90;45.60;;;;;;4840806;29;20379;-79
2022/06/18 09:54:53;;;;;;;9.30;2.30;;;33.20;45.10;;;;;;4823262;29;20046;-80
2022/06/18 09:57:23;;;;;;;12.70;2.25;;;33.10;44.80;;;;;;4837702;29;20029;-79
2022/06/18 09:59:54;;;;;;;13.77;2.50;;;33.00;43.60;;;;;;4842055;29;20038;-78
2022/06/18 10:02:24;;;;;;;14.25;2.45;;;32.90;42.80;;;;;;4841667;29;20049;-79
2022/06/18 10:07:41;;;;;;;9.63;2.60;;;33.30;43.30;;;;;;4823968;29;20507;-79
2022/06/18 10:10:09;;;;;;;16.88;2.47;;;33.10;42.50;;;;;;4840152;29;20443;-82
2022/06/18 10:12:52;;;;;;;10.82;2.53;;;32.80;42.80;;;;;;4841224;29;20030;-78
2022/06/18 10:15:18;;;;;;;17.60;2.75;;;32.90;44.60;;;;;;4840936;29;20026;-78
2022/06/18 10:18:05;;;;;;;13.82;2.33;;;33.20;43.60;;;;;;4826094;29;20031;-76
2022/06/18 10:20:50;;;;;;;15.32;2.60;;;32.90;43.40;;;;;;4840672;29;20030;-81
2022/06/18 10:23:38;;;;;;;11.68;2.92;;;32.90;43.50;;;;;;4833746;29;20022;-80
2022/06/18 10:26:23;;;;;;;9.80;2.80;;;32.60;43.90;;;;;;4840984;29;20026;-81
2022/06/18 10:29:22;;;;;;;9.10;2.67;;;32.70;44.90;;;;;;4832256;29;20117;-80
2022/06/18 10:31:54;;;;;;;7.65;2.13;;;32.80;44.80;;;;;;4823822;29;20043;-78
2022/06/18 10:34:45;;;;;;;8.45;3.17;;;32.90;45.40;;;;;;4826583;29;20042;-78
2022/06/18 10:37:31;;;;;;;19.67;3.03;;;33.00;45.80;;;;;;4835471;29;20094;-75
2022/06/18 10:40:24;;;;;;;9.77;2.78;;;33.40;45.50;;;;;;4844552;29;20487;-77
2022/06/18 10:43:01;;;;;;;12.68;2.83;;;33.70;45.60;;;;;;4843897;29;20033;-80
2022/06/18 10:45:34;;;;;;;13.20;2.92;;;33.70;45.00;;;;;;4845059;29;20026;-79
2022/06/18 10:48:01;;;;;;;9.20;2.90;;;33.50;45.80;;;;;;4844820;29;20062;-80
2022/06/18 10:50:28;;;;;;;12.10;2.85;;;33.50;46.40;;;;;;4844498;29;20022;-80
2022/06/18 10:53:06;;;;;;;11.40;2.83;;;33.60;46.20;;;;;;4844668;29;20026;-80
2022/06/18 10:55:33;;;;;;;13.38;2.72;;;34.00;46.80;;;;;;4843675;29;20121;-79
2022/06/18 10:58:11;;;;;;;11.82;3.35;;;34.30;46.60;;;;;;4844423;29;20030;-80
2022/06/18 11:00:38;;;;;;;12.77;3.63;;;34.40;45.70;;;;;;4843972;29;20033;-77
2022/06/18 11:03:17;;;;;;;12.20;3.30;;;34.40;46.00;;;;;;4844658;29;20033;-77
2022/06/18 11:05:46;;;;;;;14.77;3.47;;;34.50;46.10;;;;;;4844729;29;20090;-78
2022/06/18 11:08:31;;;;;;;8.73;2.97;;;34.70;45.90;;;;;;4843431;29;20478;-77
2022/06/18 11:11:02;;;;;;;9.15;3.05;;;34.60;46.00;;;;;;4839826;29;20166;-80
2022/06/18 11:13:29;;;;;;;12.85;3.00;;;34.30;46.00;;;;;;4843671;29;20048;-79
2022/06/18 11:16:12;;;;;;;16.67;3.50;;;33.80;46.40;;;;;;4842530;29;20407;-79
2022/06/18 11:18:59;;;;;;;9.43;2.97;;;34.10;46.70;;;;;;4831152;29;20162;-80
2022/06/18 11:21:40;;;;;;;15.30;3.20;;;33.90;47.00;;;;;;4842974;29;20017;-80
2022/06/18 11:24:13;;;;;;;14.77;3.22;;;34.70;46.80;;;;;;4843263;29;20112;-85
2022/06/18 11:26:50;;;;;;;20.30;3.47;;;34.90;46.40;;;;;;4829243;29;20033;-84
2022/06/18 11:29:41;;;;;;;13.80;3.05;;;34.70;46.90;;;;;;4842775;29;20074;-81
2022/06/18 11:32:11;;;;;;;17.42;3.10;;;34.30;47.60;;;;;;4843365;29;20056;-79
2022/06/18 11:34:42;;;;;;;13.07;4.00;;;33.90;48.50;;;;;;4842502;29;20399;-80
2022/06/18 11:37:34;;;;;;;18.55;3.50;;;33.60;48.90;;;;;;4843101;29;20030;-80
2022/06/18 11:40:03;;;;;;;5.75;3.17;;;33.70;49.00;;;;;;4840378;29;20037;-77
2022/06/18 11:42:50;;;;;;;8.32;3.03;;;33.80;49.30;;;;;;4842189;29;20108;-76
2022/06/18 11:45:27;;;;;;;10.27;3.50;;;34.10;49.00;;;;;;4842976;29;20029;-78
2022/06/18 11:48:13;;;;;;;11.52;3.10;;;34.00;49.80;;;;;;4843025;29;20022;-76
2022/06/18 12:08:50;;;;;;;10.55;3.10;;;34.30;49.40;;;;;;5071610;27;20460;-76
2022/06/18 12:11:37;;;;;;;15.55;3.95;;;34.40;50.70;;;;;;5042649;28;20033;-76
2022/06/18 12:14:23;;;;;;;11.30;3.10;;;34.40;49.90;;;;;;5064815;27;20048;-76
2022/06/18 12:17:27;;;;;;;17.90;3.55;;;34.10;50.70;;;;;;5040711;28;20017;-75
2022/06/18 12:20:15;;;;;;;11.50;3.60;;;34.30;50.70;;;;;;5044531;28;20100;-76
2022/06/18 12:22:58;;;;;;;15.88;4.15;;;34.40;51.30;;;;;;5043328;28;20018;-75
2022/06/18 12:25:36;;;;;;;8.82;3.20;;;34.30;50.80;;;;;;5084874;27;20030;-75
2022/06/18 12:28:04;;;;;;;7.70;2.83;;;34.60;50.50;;;;;;5058910;27;20031;-76
2022/06/18 12:31:11;;;;;;;13.40;3.03;;;34.00;51.00;;;;;;5045177;28;20055;-76
2022/06/18 12:33:46;;;;;;;9.07;2.83;;;34.30;51.20;;;;;;5046404;27;20473;-75
2022/06/18 12:36:17;;;;;;;9.00;2.78;;;34.50;50.70;;;;;;5044247;28;20028;-76
2022/06/18 12:39:01;;;;;;;15.70;2.73;;;34.70;49.90;;;;;;5046160;27;20028;-76
2022/06/18 12:41:38;;;;;;;8.68;2.92;;;34.80;49.70;;;;;;5045435;28;20104;-76
2022/06/18 12:44:24;;;;;;;14.57;3.50;;;35.30;49.60;;;;;;5057050;27;20022;-76
2022/06/18 12:47:28;;;;;;;8.48;3.20;;;34.90;49.50;;;;;;5086290;28;20471;-76
2022/06/18 12:49:56;;;;;;;6.85;2.67;;;35.10;49.30;;;;;;5006856;28;20503;-77
2022/06/18 12:52:43;;;;;;;14.80;3.45;;;34.70;48.80;;;;;;4993594;28;20046;-76
2022/06/18 12:55:26;;;;;;;13.43;3.55;;;34.40;49.40;;;;;;4996830;28;20038;-76
2022/06/18 12:58:23;;;;;;;11.93;2.78;;;34.60;49.20;;;;;;4995617;28;20170;-76
2022/06/18 13:00:59;;;;;;;8.15;3.13;;;34.20;49.50;;;;;;4998394;28;20092;-76
2022/06/18 13:03:33;;;;;;;9.82;2.50;;;34.20;49.80;;;;;;4999317;28;20069;-76
2022/06/18 13:06:14;;;;;;;13.30;2.97;;;34.00;49.60;;;;;;4992701;28;20102;-76
2022/06/18 13:09:04;;;;;;;10.55;2.97;;;34.10;50.10;;;;;;4980898;28;20413;-78
2022/06/18 13:12:02;;;;;;;20.90;3.80;;;34.40;50.00;;;;;;4985138;28;20537;-76
2022/06/18 13:14:54;;;;;;;11.00;2.95;;;34.70;49.70;;;;;;4994476;28;20069;-76
2022/06/18 13:17:34;;;;;;;8.68;2.88;;;34.70;49.00;;;;;;4984540;28;20159;-76
2022/06/18 13:20:11;;;;;;;16.35;2.90;;;34.30;49.20;;;;;;5014650;28;20049;-76
2022/06/18 13:22:37;;;;;;;12.05;2.65;;;34.30;49.20;;;;;;5014180;28;20078;-75
2022/06/18 13:28:23;;;;;;;10.85;3.20;;;34.30;49.20;;;;;;5014897;28;20032;-77
2022/06/18 13:31:07;;;;;;;;;;;34.50;49.10;;;;;;5013890;28;20022;-76
2022/06/18 13:33:40;;;;;;;14.65;2.75;;;34.50;49.60;;;;;;5013036;28;19917;-76
2022/06/18 13:36:34;;;;;;;15.10;2.72;;;34.40;49.10;;;;;;5012128;28;20014;-76
2022/06/18 13:39:26;;;;;;;17.30;3.00;;;34.10;50.00;;;;;;5017142;28;20414;-76
2022/06/18 13:42:04;;;;;;;10.38;3.30;;;34.00;49.50;;;;;;5044534;28;20040;-76
2022/06/18 13:44:45;;;;;;;10.68;3.00;;;33.60;49.70;;;;;;5026404;28;20030;-77